sensor_id;sensor_type;location;lat;lon;timestamp;pressure;altitude;pressure_sealevel;temperature;humidity
43488;BME280;29078;41.932;25.554;2024-01-30T00:38:54;101629.88;;;2.01;50.90
43488;BME280;29078;41.932;25.554;2024-01-30T01:54:49;101725.88;;;3.18;50.67
43488;BME280;29078;41.932;25.554;2024-01-30T02:00:42;101728.72;;;3.31;50.07
43488;BME280;29078;41.932;25.554;2024-01-30T02:12:45;101719.72;;;3.36;49.71
43488;BME280;29078;41.932;25.554;2024-01-30T02:18:26;101718.50;;;3.43;49.15
43488;BME280;29078;41.932;25.554;2024-01-30T02:48:22;101717.19;;;3.35;48.59
43488;BME280;29078;41.932;25.554;2024-01-30T05:14:42;101722.78;;;3.44;49.03
43488;BME280;29078;41.932;25.554;2024-01-30T05:23:23;101710.28;;;3.34;49.38
43488;BME280;29078;41.932;25.554;2024-01-30T05:29:00;101718.81;;;3.37;49.30
43488;BME280;29078;41.932;25.554;2024-01-30T05:31:31;101718.56;;;3.42;49.71
43488;BME280;29078;41.932;25.554;2024-01-30T06:50:34;101724.41;;;3.47;50.45
43488;BME280;29078;41.932;25.554;2024-01-30T07:05:23;101717.03;;;3.38;51.25
43488;BME280;29078;41.932;25.554;2024-01-30T07:08:17;101724.72;;;3.41;51.06
43488;BME280;29078;41.932;25.554;2024-01-30T07:14:24;101730.19;;;3.36;51.04
43488;BME280;29078;41.932;25.554;2024-01-30T07:20:29;101729.66;;;3.30;51.35
43488;BME280;29078;41.932;25.554;2024-01-30T07:25:59;101729.34;;;3.36;51.19
43488;BME280;29078;41.932;25.554;2024-01-30T07:29:16;101721.03;;;3.45;50.91
43488;BME280;29078;41.932;25.554;2024-01-30T07:32:10;101702.69;;;3.29;51.11
43488;BME280;29078;41.932;25.554;2024-01-30T07:34:56;101734.44;;;3.55;50.77
43488;BME280;29078;41.932;25.554;2024-01-30T08:08:36;101753.81;;;3.50;53.13
43488;BME280;29078;41.932;25.554;2024-01-30T08:11:42;101758.88;;;3.54;52.83
43488;BME280;29078;41.932;25.554;2024-01-30T08:24:49;101773.56;;;3.56;52.46
43488;BME280;29078;41.932;25.554;2024-01-30T08:30:48;101774.47;;;3.55;53.41
43488;BME280;29078;41.932;25.554;2024-01-30T09:08:34;101750.09;;;3.89;52.61
43488;BME280;29078;41.932;25.554;2024-01-30T09:11:10;101748.22;;;3.91;51.83
43488;BME280;29078;41.932;25.554;2024-01-30T09:14:00;101743.84;;;3.92;52.17
43488;BME280;29078;41.932;25.554;2024-01-30T09:16:59;101735.09;;;3.93;51.66
43488;BME280;29078;41.932;25.554;2024-01-30T09:20:05;101743.94;;;3.90;51.40
43488;BME280;29078;41.932;25.554;2024-01-30T09:25:57;101729.69;;;3.96;51.84
43488;BME280;29078;41.932;25.554;2024-01-30T09:28:55;101730.03;;;4.05;51.00
43488;BME280;29078;41.932;25.554;2024-01-30T09:31:58;101735.50;;;4.01;50.91
43488;BME280;29078;41.932;25.554;2024-01-30T09:35:10;101734.75;;;3.99;51.26
43488;BME280;29078;41.932;25.554;2024-01-30T09:41:00;101730.53;;;3.96;51.06
43488;BME280;29078;41.932;25.554;2024-01-30T09:50:07;101718.06;;;4.17;50.58
43488;BME280;29078;41.932;25.554;2024-01-30T09:53:10;101706.09;;;4.13;50.46
43488;BME280;29078;41.932;25.554;2024-01-30T09:55:55;101710.56;;;4.11;50.70
43488;BME280;29078;41.932;25.554;2024-01-30T10:01:15;101707.19;;;4.25;50.36
43488;BME280;29078;41.932;25.554;2024-01-30T10:06:57;101707.53;;;4.34;50.45
43488;BME280;29078;41.932;25.554;2024-01-30T10:09:57;101710.31;;;4.31;50.25
43488;BME280;29078;41.932;25.554;2024-01-30T10:22:34;101694.09;;;4.40;49.76
43488;BME280;29078;41.932;25.554;2024-01-30T10:25:07;101698.25;;;4.44;49.74
43488;BME280;29078;41.932;25.554;2024-01-30T10:30:35;101688.38;;;4.50;50.05
43488;BME280;29078;41.932;25.554;2024-01-30T10:36:43;101688.56;;;4.46;49.40
43488;BME280;29078;41.932;25.554;2024-01-30T10:39:11;101689.06;;;4.53;48.85
43488;BME280;29078;41.932;25.554;2024-01-30T10:47:21;101686.34;;;4.55;48.01
43488;BME280;29078;41.932;25.554;2024-01-30T10:50:02;101690.03;;;4.66;48.31
43488;BME280;29078;41.932;25.554;2024-01-30T10:52:44;101696.66;;;4.58;48.00
43488;BME280;29078;41.932;25.554;2024-01-30T10:55:11;101692.00;;;4.63;47.79
43488;BME280;29078;41.932;25.554;2024-01-30T10:57:39;101680.16;;;4.71;47.37
43488;BME280;29078;41.932;25.554;2024-01-30T11:00:40;101681.19;;;4.69;47.14
43488;BME280;29078;41.932;25.554;2024-01-30T11:03:06;101684.38;;;4.74;47.11
43488;BME280;29078;41.932;25.554;2024-01-30T11:05:33;101672.50;;;4.68;47.07
43488;BME280;29078;41.932;25.554;2024-01-30T11:07:58;101683.63;;;4.72;47.08
43488;BME280;29078;41.932;25.554;2024-01-30T11:10:24;101677.00;;;4.81;47.48
43488;BME280;29078;41.932;25.554;2024-01-30T11:12:50;101670.09;;;4.79;47.15
43488;BME280;29078;41.932;25.554;2024-01-30T11:15:16;101665.25;;;4.88;47.33
43488;BME280;29078;41.932;25.554;2024-01-30T11:17:42;101663.47;;;4.88;46.79
43488;BME280;29078;41.932;25.554;2024-01-30T11:23:10;101662.16;;;4.81;46.97
43488;BME280;29078;41.932;25.554;2024-01-30T11:25:36;101657.59;;;4.85;46.60
43488;BME280;29078;41.932;25.554;2024-01-30T11:28:02;101658.81;;;4.93;47.36
43488;BME280;29078;41.932;25.554;2024-01-30T11:30:28;101650.13;;;4.93;46.77
43488;BME280;29078;41.932;25.554;2024-01-30T11:35:57;101637.97;;;4.92;46.60
43488;BME280;29078;41.932;25.554;2024-01-30T11:38:23;101643.50;;;5.01;46.92
43488;BME280;29078;41.932;25.554;2024-01-30T11:40:50;101637.78;;;4.95;46.11
43488;BME280;29078;41.932;25.554;2024-01-30T11:43:16;101639.00;;;4.89;46.87
43488;BME280;29078;41.932;25.554;2024-01-30T11:45:42;101630.97;;;4.92;46.35
43488;BME280;29078;41.932;25.554;2024-01-30T11:48:08;101633.00;;;4.87;46.03
43488;BME280;29078;41.932;25.554;2024-01-30T11:50:38;101634.59;;;4.90;46.08
43488;BME280;29078;41.932;25.554;2024-01-30T11:53:04;101627.88;;;4.86;46.39
43488;BME280;29078;41.932;25.554;2024-01-30T11:55:29;101633.75;;;4.89;46.22
43488;BME280;29078;41.932;25.554;2024-01-30T11:57:56;101620.66;;;4.89;46.34
43488;BME280;29078;41.932;25.554;2024-01-30T12:00:21;101630.88;;;4.94;46.95
43488;BME280;29078;41.932;25.554;2024-01-30T12:05:40;101625.28;;;5.00;47.08
43488;BME280;29078;41.932;25.554;2024-01-30T12:08:13;101617.13;;;4.90;46.35
43488;BME280;29078;41.932;25.554;2024-01-30T12:10:39;101623.69;;;4.97;46.63
43488;BME280;29078;41.932;25.554;2024-01-30T12:13:04;101621.06;;;4.97;46.83
43488;BME280;29078;41.932;25.554;2024-01-30T12:15:29;101616.13;;;5.07;46.70
43488;BME280;29078;41.932;25.554;2024-01-30T12:18:03;101619.97;;;5.16;46.44
43488;BME280;29078;41.932;25.554;2024-01-30T12:20:29;101610.50;;;5.13;45.97
43488;BME280;29078;41.932;25.554;2024-01-30T12:22:54;101605.28;;;5.13;45.96
43488;BME280;29078;41.932;25.554;2024-01-30T12:25:20;101603.41;;;5.15;45.77
43488;BME280;29078;41.932;25.554;2024-01-30T12:27:46;101599.66;;;5.19;45.92
43488;BME280;29078;41.932;25.554;2024-01-30T12:30:12;101592.00;;;5.16;46.23
43488;BME280;29078;41.932;25.554;2024-01-30T12:32:41;101590.34;;;5.29;45.53
43488;BME280;29078;41.932;25.554;2024-01-30T12:35:09;101610.91;;;5.21;45.82
43488;BME280;29078;41.932;25.554;2024-01-30T12:37:35;101580.34;;;5.22;45.50
43488;BME280;29078;41.932;25.554;2024-01-30T12:40:01;101590.72;;;5.23;45.27
43488;BME280;29078;41.932;25.554;2024-01-30T12:42:27;101596.03;;;5.22;45.15
43488;BME280;29078;41.932;25.554;2024-01-30T12:44:52;101588.84;;;5.25;45.83
43488;BME280;29078;41.932;25.554;2024-01-30T12:47:18;101595.13;;;5.23;45.55
43488;BME280;29078;41.932;25.554;2024-01-30T12:49:43;101591.25;;;5.14;44.69
43488;BME280;29078;41.932;25.554;2024-01-30T12:52:10;101590.22;;;5.17;45.24
43488;BME280;29078;41.932;25.554;2024-01-30T12:54:35;101592.00;;;5.16;45.08
43488;BME280;29078;41.932;25.554;2024-01-30T12:57:00;101592.94;;;5.15;45.19
43488;BME280;29078;41.932;25.554;2024-01-30T12:59:26;101586.19;;;5.11;45.07
43488;BME280;29078;41.932;25.554;2024-01-30T13:01:51;101596.00;;;5.07;44.92
43488;BME280;29078;41.932;25.554;2024-01-30T13:04:16;101595.16;;;5.07;45.72
43488;BME280;29078;41.932;25.554;2024-01-30T13:06:42;101594.97;;;5.10;44.81
43488;BME280;29078;41.932;25.554;2024-01-30T13:09:07;101589.47;;;5.15;44.95
43488;BME280;29078;41.932;25.554;2024-01-30T13:11:32;101592.94;;;5.15;45.09
43488;BME280;29078;41.932;25.554;2024-01-30T13:13:58;101594.69;;;5.15;45.05
43488;BME280;29078;41.932;25.554;2024-01-30T13:16:23;101597.13;;;5.18;45.24
43488;BME280;29078;41.932;25.554;2024-01-30T13:18:48;101591.88;;;5.03;45.27
43488;BME280;29078;41.932;25.554;2024-01-30T13:21:13;101590.69;;;5.09;45.49
43488;BME280;29078;41.932;25.554;2024-01-30T13:23:39;101590.97;;;5.04;45.75
43488;BME280;29078;41.932;25.554;2024-01-30T13:26:04;101587.41;;;5.05;45.64
43488;BME280;29078;41.932;25.554;2024-01-30T13:28:29;101581.78;;;5.11;45.57
43488;BME280;29078;41.932;25.554;2024-01-30T13:30:55;101576.38;;;5.15;45.56
43488;BME280;29078;41.932;25.554;2024-01-30T13:33:20;101572.91;;;5.14;45.45
43488;BME280;29078;41.932;25.554;2024-01-30T13:35:45;101577.88;;;5.19;45.29
43488;BME280;29078;41.932;25.554;2024-01-30T13:38:11;101583.38;;;5.14;44.80
43488;BME280;29078;41.932;25.554;2024-01-30T13:40:36;101592.28;;;5.11;45.72
43488;BME280;29078;41.932;25.554;2024-01-30T13:43:01;101587.31;;;5.07;45.67
43488;BME280;29078;41.932;25.554;2024-01-30T13:45:27;101592.34;;;4.96;45.70
43488;BME280;29078;41.932;25.554;2024-01-30T13:47:52;101578.88;;;4.88;44.72
43488;BME280;29078;41.932;25.554;2024-01-30T13:50:17;101581.50;;;4.88;44.95
43488;BME280;29078;41.932;25.554;2024-01-30T13:52:43;101573.56;;;4.89;45.21
43488;BME280;29078;41.932;25.554;2024-01-30T13:55:27;101575.50;;;4.86;45.85
43488;BME280;29078;41.932;25.554;2024-01-30T13:57:52;101584.88;;;4.90;45.60
43488;BME280;29078;41.932;25.554;2024-01-30T14:00:17;101583.28;;;4.87;44.95
43488;BME280;29078;41.932;25.554;2024-01-30T14:02:43;101576.53;;;4.83;45.18
43488;BME280;29078;41.932;25.554;2024-01-30T14:05:08;101575.34;;;4.89;45.85
43488;BME280;29078;41.932;25.554;2024-01-30T14:07:35;101585.53;;;4.93;45.44
43488;BME280;29078;41.932;25.554;2024-01-30T14:10:00;101585.25;;;4.98;45.44
43488;BME280;29078;41.932;25.554;2024-01-30T14:12:26;101582.06;;;4.93;45.43
43488;BME280;29078;41.932;25.554;2024-01-30T14:14:51;101582.63;;;4.98;45.32
43488;BME280;29078;41.932;25.554;2024-01-30T14:17:16;101583.38;;;5.00;45.53
43488;BME280;29078;41.932;25.554;2024-01-30T14:19:42;101579.75;;;5.02;45.71
43488;BME280;29078;41.932;25.554;2024-01-30T14:22:07;101581.31;;;5.05;45.31
43488;BME280;29078;41.932;25.554;2024-01-30T14:24:33;101581.97;;;5.08;45.22
43488;BME280;29078;41.932;25.554;2024-01-30T14:26:58;101588.44;;;5.03;45.32
43488;BME280;29078;41.932;25.554;2024-01-30T14:29:24;101591.06;;;5.03;45.27
43488;BME280;29078;41.932;25.554;2024-01-30T14:31:50;101590.78;;;5.07;45.61
43488;BME280;29078;41.932;25.554;2024-01-30T14:34:15;101595.16;;;5.07;45.14
43488;BME280;29078;41.932;25.554;2024-01-30T14:36:40;101585.81;;;5.03;45.10
43488;BME280;29078;41.932;25.554;2024-01-30T14:39:05;101596.38;;;5.01;45.79
43488;BME280;29078;41.932;25.554;2024-01-30T14:41:32;101592.91;;;5.01;44.89
43488;BME280;29078;41.932;25.554;2024-01-30T14:43:57;101590.97;;;5.04;45.21
43488;BME280;29078;41.932;25.554;2024-01-30T14:46:22;101583.56;;;4.97;44.73
43488;BME280;29078;41.932;25.554;2024-01-30T14:48:47;101585.53;;;4.93;45.29
43488;BME280;29078;41.932;25.554;2024-01-30T14:51:13;101583.94;;;4.91;45.58
43488;BME280;29078;41.932;25.554;2024-01-30T14:53:38;101581.13;;;4.94;45.66
43488;BME280;29078;41.932;25.554;2024-01-30T14:56:04;101587.13;;;4.96;45.29
43488;BME280;29078;41.932;25.554;2024-01-30T14:58:29;101565.22;;;4.83;45.86
43488;BME280;29078;41.932;25.554;2024-01-30T15:00:55;101579.34;;;4.80;45.07
43488;BME280;29078;41.932;25.554;2024-01-30T15:03:20;101583.81;;;4.78;45.00
43488;BME280;29078;41.932;25.554;2024-01-30T15:05:45;101595.78;;;4.82;45.70
43488;BME280;29078;41.932;25.554;2024-01-30T15:08:11;101592.16;;;4.85;45.68
43488;BME280;29078;41.932;25.554;2024-01-30T15:10:36;101596.63;;;4.83;45.40
43488;BME280;29078;41.932;25.554;2024-01-30T15:13:01;101602.44;;;4.88;45.52
43488;BME280;29078;41.932;25.554;2024-01-30T15:15:26;101591.03;;;4.89;45.18
43488;BME280;29078;41.932;25.554;2024-01-30T15:17:53;101592.63;;;4.91;45.17
43488;BME280;29078;41.932;25.554;2024-01-30T15:20:19;101591.88;;;4.89;45.16
43488;BME280;29078;41.932;25.554;2024-01-30T15:22:44;101602.53;;;4.86;45.35
43488;BME280;29078;41.932;25.554;2024-01-30T15:25:10;101605.50;;;4.80;45.96
43488;BME280;29078;41.932;25.554;2024-01-30T15:27:35;101598.47;;;4.66;45.56
43488;BME280;29078;41.932;25.554;2024-01-30T15:30:01;101602.88;;;4.66;45.50
43488;BME280;29078;41.932;25.554;2024-01-30T15:32:26;101608.09;;;4.66;46.05
43488;BME280;29078;41.932;25.554;2024-01-30T15:34:51;101607.06;;;4.68;46.15
43488;BME280;29078;41.932;25.554;2024-01-30T15:37:17;101600.78;;;4.57;45.66
43488;BME280;29078;41.932;25.554;2024-01-30T15:39:42;101605.25;;;4.55;45.80
43488;BME280;29078;41.932;25.554;2024-01-30T15:42:07;101604.25;;;4.57;45.93
43488;BME280;29078;41.932;25.554;2024-01-30T15:47:37;101607.13;;;4.53;46.12
43488;BME280;29078;41.932;25.554;2024-01-30T15:56:46;101600.03;;;4.55;45.94
43488;BME280;29078;41.932;25.554;2024-01-30T16:05:23;101605.94;;;4.58;46.06
43488;BME280;29078;41.932;25.554;2024-01-30T16:08:12;101601.63;;;4.57;45.96
43488;BME280;29078;41.932;25.554;2024-01-30T16:11:05;101607.53;;;4.45;45.75
43488;BME280;29078;41.932;25.554;2024-01-30T16:20:06;101618.53;;;4.36;46.25
43488;BME280;29078;41.932;25.554;2024-01-30T16:26:16;101612.44;;;4.35;45.90
43488;BME280;29078;41.932;25.554;2024-01-30T16:29:23;101609.41;;;4.43;45.95
43488;BME280;29078;41.932;25.554;2024-01-30T16:32:49;101610.69;;;4.36;46.34
43488;BME280;29078;41.932;25.554;2024-01-30T16:48:28;101615.06;;;4.35;46.53
43488;BME280;29078;41.932;25.554;2024-01-30T16:53:59;101633.72;;;4.29;46.75
43488;BME280;29078;41.932;25.554;2024-01-30T17:08:09;101647.75;;;4.12;47.08
43488;BME280;29078;41.932;25.554;2024-01-30T17:34:32;101663.34;;;3.98;47.56
43488;BME280;29078;41.932;25.554;2024-01-30T17:37:40;101653.56;;;4.02;47.32
43488;BME280;29078;41.932;25.554;2024-01-30T18:11:03;101669.66;;;4.10;47.24
43488;BME280;29078;41.932;25.554;2024-01-30T18:34:00;101666.53;;;4.03;46.91
43488;BME280;29078;41.932;25.554;2024-01-30T18:37:04;101669.31;;;4.00;47.40
43488;BME280;29078;41.932;25.554;2024-01-30T18:54:29;101672.09;;;4.13;47.12
43488;BME280;29078;41.932;25.554;2024-01-30T19:03:21;101661.16;;;4.06;47.22
43488;BME280;29078;41.932;25.554;2024-01-30T19:06:25;101658.38;;;4.09;46.78
43488;BME280;29078;41.932;25.554;2024-01-30T20:11:14;101650.94;;;4.18;46.61
43488;BME280;29078;41.932;25.554;2024-01-30T21:03:35;101624.97;;;3.99;46.18
43488;BME280;29078;41.932;25.554;2024-01-30T22:47:21;101588.44;;;3.66;46.00
